Time;durP1;ratioP1;P1;durP2;ratioP2;P2;SDS_P1;SDS_P2;PMS_P1;PMS_P2;Temp;Humidity;BMP_temperature;BMP_pressure;BME280_temperature;BME280_humidity;BME280_pressure;Samples;Min_cycle;Max_cycle;Signal;HPM_P1;HPM_P2
2022/10/18 00:01:52;;;;;;;276.73;46.25;;;13.40;99.90;;;;;;5044271;28;20044;-71
2022/10/18 00:04:18;;;;;;;165.77;40.22;;;13.40;99.90;;;;;;5043970;28;20042;-71
2022/10/18 00:06:44;;;;;;;164.57;39.95;;;13.40;99.90;;;;;;5048556;28;20033;-71
2022/10/18 00:09:10;;;;;;;205.55;42.97;;;13.60;99.90;;;;;;5046854;28;20087;-71
2022/10/18 00:11:35;;;;;;;481.13;45.05;;;13.50;99.90;;;;;;5045360;28;20068;-71
2022/10/18 00:14:01;;;;;;;560.90;45.58;;;13.50;99.90;;;;;;5046276;28;20384;-71
2022/10/18 00:16:26;;;;;;;423.08;39.33;;;13.50;99.90;;;;;;5041947;28;20029;-71
2022/10/18 00:18:52;;;;;;;399.45;43.33;;;13.50;99.90;;;;;;5045914;28;20048;-71
2022/10/18 00:21:20;;;;;;;353.55;43.33;;;13.30;99.90;;;;;;5048277;28;20106;-71
2022/10/18 00:23:47;;;;;;;876.03;66.63;;;13.20;99.90;;;;;;5049530;28;20048;-70
2022/10/18 00:26:22;;;;;;;791.45;66.32;;;13.20;99.90;;;;;;5048586;28;20102;-71
2022/10/18 00:28:54;;;;;;;841.00;59.13;;;13.30;99.90;;;;;;5053473;28;20044;-70
2022/10/18 00:31:28;;;;;;;730.83;54.28;;;13.20;99.90;;;;;;5048550;28;20492;-70
2022/10/18 00:37:35;;;;;;;39.17;17.25;;;12.90;99.90;;;;;;5045760;28;20549;-70
2022/10/18 00:40:00;;;;;;;63.88;20.83;;;12.80;99.90;;;;;;5050957;28;20037;-70
2022/10/18 00:42:32;;;;;;;56.88;20.88;;;12.80;99.90;;;;;;5047411;28;20076;-70
2022/10/18 00:45:24;;;;;;;39.72;15.73;;;12.70;99.90;;;;;;5050907;28;20072;-70
2022/10/18 00:47:55;;;;;;;32.13;15.57;;;12.50;99.90;;;;;;5043154;28;20037;-70
2022/10/18 00:50:23;;;;;;;36.15;14.77;;;12.50;99.90;;;;;;5043904;28;20112;-70
2022/10/18 00:52:54;;;;;;;39.42;15.93;;;12.60;99.90;;;;;;5045540;28;20076;-70
2022/10/18 00:55:19;;;;;;;38.38;17.08;;;12.50;99.90;;;;;;5043013;28;20041;-70
2022/10/18 00:57:47;;;;;;;55.58;18.65;;;12.40;99.90;;;;;;5049942;28;20135;-70
2022/10/18 01:00:13;;;;;;;58.78;21.05;;;12.40;99.90;;;;;;5047717;28;20098;-70
2022/10/18 01:02:41;;;;;;;46.40;17.77;;;12.30;99.90;;;;;;5042953;28;20483;-70
2022/10/18 01:05:08;;;;;;;336.83;32.83;;;12.40;99.90;;;;;;5043509;28;20040;-70
2022/10/18 01:07:46;;;;;;;97.55;20.10;;;12.20;99.90;;;;;;5047368;28;20052;-70
2022/10/18 01:10:26;;;;;;;391.67;33.67;;;12.30;99.90;;;;;;5039080;28;20488;-69
2022/10/18 01:13:32;;;;;;;227.60;26.10;;;12.10;99.90;;;;;;5053751;28;20476;-69
2022/10/18 01:16:20;;;;;;;125.80;25.58;;;12.00;99.90;;;;;;5048187;28;20409;-69
2022/10/18 01:19:24;;;;;;;577.00;47.17;;;12.00;99.90;;;;;;5039553;28;20045;-70
2022/10/18 01:22:06;;;;;;;63.63;23.60;;;12.10;99.90;;;;;;5043268;28;20068;-69
2022/10/18 01:25:13;;;;;;;71.70;25.40;;;12.10;99.90;;;;;;5042816;28;20041;-70
2022/10/18 01:27:42;;;;;;;60.20;23.88;;;12.20;99.90;;;;;;5043375;28;20511;-69
2022/10/18 01:30:26;;;;;;;54.95;23.05;;;12.10;99.90;;;;;;5046582;28;20467;-69
2022/10/18 01:32:57;;;;;;;58.85;24.48;;;12.10;99.90;;;;;;5046842;28;20385;-69
2022/10/18 01:35:30;;;;;;;53.60;22.48;;;12.20;99.90;;;;;;5044524;28;20402;-69
2022/10/18 01:38:00;;;;;;;41.80;18.65;;;12.10;99.90;;;;;;5045217;28;20407;-69
2022/10/18 01:40:29;;;;;;;45.30;20.00;;;12.10;99.90;;;;;;5041682;28;20041;-69
2022/10/18 01:42:54;;;;;;;47.88;20.15;;;12.00;99.90;;;;;;5045189;28;20483;-69
2022/10/18 01:45:22;;;;;;;39.20;19.58;;;12.00;99.90;;;;;;5076417;28;20043;-69
2022/10/18 01:51:30;;;;;;;40.58;19.10;;;12.00;99.90;;;;;;5042351;28;20526;-69
2022/10/18 01:53:57;;;;;;;34.85;19.02;;;11.90;99.90;;;;;;5040539;28;20464;-69
2022/10/18 01:56:50;;;;;;;29.13;16.02;;;11.90;99.90;;;;;;5042847;28;20128;-68
2022/10/18 01:59:48;;;;;;;35.50;17.65;;;11.90;99.90;;;;;;5043773;28;20037;-68
2022/10/18 02:02:17;;;;;;;40.88;18.25;;;11.70;99.90;;;;;;5038669;28;20048;-68
2022/10/18 02:05:04;;;;;;;39.45;17.90;;;11.80;99.90;;;;;;5041944;28;20045;-69
2022/10/18 02:07:36;;;;;;;37.25;17.13;;;11.70;99.90;;;;;;5066429;28;20041;-69
2022/10/18 02:10:24;;;;;;;54.42;18.60;;;11.80;99.90;;;;;;5037766;28;20503;-69
2022/10/18 02:12:51;;;;;;;38.55;17.27;;;11.70;99.90;;;;;;5068824;28;20045;-69
2022/10/18 02:15:22;;;;;;;108.47;19.35;;;11.70;99.90;;;;;;5033152;28;20088;-69
2022/10/18 02:17:49;;;;;;;108.10;19.33;;;11.60;99.90;;;;;;5042091;28;20399;-69
2022/10/18 02:20:19;;;;;;;41.60;16.20;;;11.60;99.90;;;;;;5040274;28;20037;-69
2022/10/18 02:22:48;;;;;;;46.42;19.17;;;11.50;99.90;;;;;;5040019;28;20040;-69
2022/10/18 02:25:19;;;;;;;110.93;20.48;;;11.60;99.90;;;;;;5046094;28;20036;-69
2022/10/18 02:27:44;;;;;;;156.32;17.40;;;11.60;99.90;;;;;;5072948;28;20068;-69
2022/10/18 02:30:11;;;;;;;40.67;14.10;;;11.40;99.90;;;;;;5043261;28;20124;-68
2022/10/18 02:32:49;;;;;;;199.43;19.02;;;11.40;99.90;;;;;;5041033;28;20033;-69
2022/10/18 02:35:28;;;;;;;106.63;14.27;;;11.30;99.90;;;;;;5041017;28;20044;-68
2022/10/18 02:37:55;;;;;;;67.32;13.93;;;10.90;99.90;;;;;;5037127;28;20029;-68
2022/10/18 02:40:21;;;;;;;123.15;14.00;;;10.80;99.90;;;;;;5036289;28;20048;-68
2022/10/18 02:42:49;;;;;;;211.18;17.77;;;10.70;99.90;;;;;;5035359;28;20041;-68
2022/10/18 02:45:16;;;;;;;346.52;22.63;;;10.60;99.90;;;;;;5044080;28;20032;-69
2022/10/18 02:47:42;;;;;;;122.85;15.93;;;10.60;99.90;;;;;;5037047;28;20037;-68
2022/10/18 02:50:08;;;;;;;40.40;13.32;;;10.50;99.90;;;;;;5038788;28;20498;-68
2022/10/18 02:52:33;;;;;;;51.70;15.82;;;10.40;99.90;;;;;;5034037;28;20033;-68
2022/10/18 02:55:00;;;;;;;43.60;15.95;;;10.60;99.90;;;;;;5025683;28;20033;-68
2022/10/18 02:57:25;;;;;;;44.85;17.02;;;10.60;99.90;;;;;;5034111;28;20144;-68
2022/10/18 02:59:51;;;;;;;46.35;19.55;;;10.70;99.90;;;;;;5062827;28;20495;-68
2022/10/18 03:02:17;;;;;;;46.53;17.98;;;10.70;99.90;;;;;;5035660;28;20045;-68
2022/10/18 03:04:42;;;;;;;49.83;19.48;;;10.90;99.90;;;;;;5043801;28;20415;-68
2022/10/18 03:07:08;;;;;;;51.05;20.80;;;10.90;99.90;;;;;;5049624;28;20054;-68
2022/10/18 03:09:34;;;;;;;58.47;20.95;;;11.00;99.90;;;;;;5061446;28;20041;-68
2022/10/18 03:11:59;;;;;;;107.65;22.95;;;10.90;99.90;;;;;;5042140;28;20033;-68
2022/10/18 03:14:25;;;;;;;104.90;21.10;;;10.90;99.90;;;;;;5041183;28;20037;-68
2022/10/18 03:16:50;;;;;;;76.30;19.73;;;10.90;99.90;;;;;;5040931;28;20033;-68
2022/10/18 03:19:16;;;;;;;112.70;22.70;;;10.90;99.90;;;;;;5039286;28;20045;-68
2022/10/18 03:21:41;;;;;;;50.22;19.35;;;11.00;99.90;;;;;;5037772;28;20187;-68
2022/10/18 03:24:07;;;;;;;92.85;22.50;;;10.90;99.90;;;;;;5040166;28;20525;-68
2022/10/18 03:26:33;;;;;;;45.13;19.10;;;11.00;99.90;;;;;;5039108;28;20049;-68
2022/10/18 03:28:58;;;;;;;38.45;18.42;;;11.00;99.90;;;;;;5039024;28;20053;-68
2022/10/18 03:31:24;;;;;;;49.60;18.90;;;11.00;99.90;;;;;;5040244;28;20142;-68
2022/10/18 03:33:49;;;;;;;115.07;23.25;;;11.00;99.90;;;;;;5033727;28;20051;-68
2022/10/18 03:36:15;;;;;;;339.80;33.60;;;11.10;99.90;;;;;;5037356;28;20048;-68
2022/10/18 03:38:41;;;;;;;361.92;29.08;;;11.00;99.90;;;;;;5044639;28;20041;-68
2022/10/18 03:41:07;;;;;;;224.10;27.02;;;11.10;99.90;;;;;;5043176;28;20094;-68
2022/10/18 03:43:32;;;;;;;464.73;37.65;;;11.00;99.90;;;;;;5042413;28;20075;-68
2022/10/18 03:45:58;;;;;;;542.47;42.33;;;11.00;99.90;;;;;;5039018;28;20567;-68
2022/10/18 03:48:24;;;;;;;696.80;56.17;;;10.90;99.90;;;;;;5041890;28;20492;-68
2022/10/18 03:50:49;;;;;;;596.08;50.67;;;11.00;99.90;;;;;;5039969;28;20084;-68
2022/10/18 03:53:15;;;;;;;575.47;51.45;;;11.10;99.90;;;;;;5041185;28;20128;-68
2022/10/18 03:55:40;;;;;;;123.07;27.95;;;11.10;99.90;;;;;;5069060;28;20037;-68
2022/10/18 03:58:06;;;;;;;91.82;24.75;;;11.30;99.90;;;;;;5038453;28;20081;-68
2022/10/18 04:00:32;;;;;;;86.38;26.23;;;11.20;99.90;;;;;;5030812;28;20040;-68
2022/10/18 04:02:58;;;;;;;75.85;24.17;;;11.10;99.90;;;;;;5036566;28;20040;-68
2022/10/18 04:05:25;;;;;;;83.53;25.08;;;11.20;99.90;;;;;;5041616;28;20049;-68
2022/10/18 04:07:51;;;;;;;49.20;21.75;;;11.20;99.90;;;;;;5043092;28;20044;-68
2022/10/18 04:10:17;;;;;;;57.90;23.55;;;11.10;99.90;;;;;;5040033;28;20657;-68
2022/10/18 04:12:43;;;;;;;64.72;22.85;;;11.00;99.90;;;;;;5071977;28;20379;-68
2022/10/18 04:15:09;;;;;;;138.18;25.02;;;11.10;99.90;;;;;;5073740;28;20068;-68
2022/10/18 04:17:35;;;;;;;240.60;31.45;;;11.10;99.90;;;;;;5038862;28;20037;-68
2022/10/18 04:20:00;;;;;;;463.08;40.97;;;11.00;99.90;;;;;;5076194;28;20037;-68
2022/10/18 04:22:26;;;;;;;343.80;35.42;;;11.10;99.90;;;;;;5067085;28;21024;-68
2022/10/18 04:24:52;;;;;;;296.17;35.58;;;11.10;99.90;;;;;;5036032;28;20037;-68
2022/10/18 04:27:18;;;;;;;106.93;25.65;;;11.20;99.90;;;;;;5068632;28;20102;-68
2022/10/18 04:29:43;;;;;;;176.07;28.17;;;11.00;99.90;;;;;;5058890;28;20088;-68
2022/10/18 04:32:09;;;;;;;123.10;25.95;;;11.00;99.90;;;;;;5035548;28;20041;-68
2022/10/18 04:34:34;;;;;;;123.55;25.27;;;11.00;99.90;;;;;;5037264;28;20091;-68
2022/10/18 04:37:00;;;;;;;254.02;30.73;;;11.00;99.90;;;;;;5075326;28;20066;-68
2022/10/18 04:39:26;;;;;;;410.52;41.78;;;11.20;99.90;;;;;;5034575;28;20044;-68
2022/10/18 04:41:51;;;;;;;592.55;49.25;;;11.10;99.90;;;;;;5036043;28;20144;-68
2022/10/18 04:44:17;;;;;;;741.45;60.13;;;11.10;99.90;;;;;;5068231;28;20038;-68
2022/10/18 04:46:42;;;;;;;474.98;43.03;;;11.20;99.90;;;;;;5066333;28;20487;-68
2022/10/18 04:49:08;;;;;;;181.00;29.10;;;11.20;99.90;;;;;;5072499;28;20069;-68
2022/10/18 04:51:33;;;;;;;198.35;31.92;;;11.10;99.90;;;;;;5038869;28;20045;-68
2022/10/18 04:53:59;;;;;;;172.10;29.15;;;11.20;99.90;;;;;;5051445;28;20037;-68
2022/10/18 04:56:24;;;;;;;559.42;46.33;;;11.30;99.90;;;;;;5044964;28;20037;-68
2022/10/18 04:58:50;;;;;;;464.35;38.78;;;11.10;99.90;;;;;;5072280;28;20045;-68
2022/10/18 05:01:17;;;;;;;400.42;40.97;;;11.20;99.90;;;;;;5038139;28;20063;-68
2022/10/18 05:03:43;;;;;;;318.23;34.70;;;11.10;99.90;;;;;;5066248;28;20079;-68
2022/10/18 05:06:09;;;;;;;229.18;32.42;;;11.10;99.90;;;;;;5070500;28;20431;-68
2022/10/18 05:08:35;;;;;;;471.20;42.28;;;11.10;99.90;;;;;;5029771;28;20387;-68
2022/10/18 05:11:02;;;;;;;504.40;46.03;;;11.20;99.90;;;;;;5033605;28;20099;-68
2022/10/18 05:13:28;;;;;;;661.47;52.38;;;11.10;99.90;;;;;;5040592;28;20091;-68
2022/10/18 05:15:53;;;;;;;640.28;52.38;;;11.30;99.90;;;;;;5054320;28;20067;-68
2022/10/18 05:18:19;;;;;;;849.60;59.53;;;11.30;99.90;;;;;;5031205;28;20053;-69
2022/10/18 05:20:45;;;;;;;321.08;37.03;;;11.30;99.90;;;;;;5034601;28;20073;-69
2022/10/18 05:23:10;;;;;;;668.10;53.80;;;11.20;99.90;;;;;;5042652;28;20041;-69
2022/10/18 05:25:43;;;;;;;485.70;44.83;;;11.20;99.90;;;;;;5043462;28;20060;-69
2022/10/18 05:28:08;;;;;;;;;;;11.40;99.90;;;;;;5039560;28;20191;-69
2022/10/18 05:30:37;;;;;;;634.25;50.72;;;11.40;99.90;;;;;;5039630;28;19950;-69
2022/10/18 05:33:03;;;;;;;585.63;48.90;;;11.30;99.90;;;;;;5068478;28;20055;-70
2022/10/18 05:35:28;;;;;;;673.78;53.95;;;11.30;99.90;;;;;;5039749;28;20033;-70
2022/10/18 05:37:54;;;;;;;655.67;55.53;;;11.40;99.90;;;;;;5043649;28;20091;-70
2022/10/18 05:40:19;;;;;;;449.20;46.85;;;11.30;99.90;;;;;;5040425;28;20036;-69
2022/10/18 05:42:45;;;;;;;523.42;47.78;;;11.20;99.90;;;;;;5041743;28;20072;-69
2022/10/18 05:45:10;;;;;;;461.92;46.55;;;11.10;99.90;;;;;;5036941;28;20039;-70
2022/10/18 05:47:36;;;;;;;569.13;51.25;;;11.10;99.90;;;;;;5035429;28;20119;-70
2022/10/18 05:50:02;;;;;;;587.75;50.38;;;11.10;99.90;;;;;;5034015;28;20111;-69
2022/10/18 05:52:28;;;;;;;458.38;46.00;;;11.00;99.90;;;;;;5029543;28;20072;-69
2022/10/18 05:54:53;;;;;;;525.05;48.78;;;10.90;99.90;;;;;;5033667;28;20626;-70
2022/10/18 05:57:19;;;;;;;560.03;49.70;;;10.90;99.90;;;;;;5037274;28;20032;-69
2022/10/18 05:59:45;;;;;;;382.60;41.47;;;10.90;99.90;;;;;;5032989;28;20033;-70
2022/10/18 06:02:11;;;;;;;388.88;41.60;;;10.70;99.90;;;;;;5036485;28;20447;-69
2022/10/18 06:04:36;;;;;;;240.93;36.20;;;10.80;99.90;;;;;;5036430;28;20044;-69
2022/10/18 06:07:06;;;;;;;339.98;39.33;;;10.60;99.90;;;;;;5036050;28;20075;-69
2022/10/18 06:09:31;;;;;;;669.10;54.08;;;10.80;99.90;;;;;;5069644;28;20047;-69
2022/10/18 06:11:57;;;;;;;497.95;43.72;;;10.60;99.90;;;;;;5036907;28;20029;-69
2022/10/18 06:14:23;;;;;;;483.52;42.75;;;10.70;99.90;;;;;;5040607;28;20045;-69
2022/10/18 06:16:49;;;;;;;468.83;46.00;;;10.60;99.90;;;;;;5042305;28;20480;-69
2022/10/18 06:19:15;;;;;;;531.63;48.63;;;10.60;99.90;;;;;;5071175;28;20040;-69
2022/10/18 06:21:42;;;;;;;501.90;45.50;;;10.50;99.90;;;;;;5040136;28;20508;-69
2022/10/18 06:24:08;;;;;;;417.15;42.97;;;10.50;99.90;;;;;;5037782;28;20043;-69
2022/10/18 06:26:34;;;;;;;430.20;42.72;;;10.40;99.90;;;;;;5036636;28;20032;-69
2022/10/18 06:28:59;;;;;;;484.85;44.53;;;10.50;99.90;;;;;;5072208;28;20064;-69
2022/10/18 06:31:25;;;;;;;404.00;42.20;;;10.50;99.90;;;;;;5037823;28;20036;-69
2022/10/18 06:33:51;;;;;;;468.52;42.97;;;10.50;99.90;;;;;;5043562;28;20072;-69
2022/10/18 06:36:20;;;;;;;613.67;47.53;;;10.50;99.90;;;;;;5040716;28;20029;-70
2022/10/18 06:38:47;;;;;;;626.38;46.85;;;10.40;99.90;;;;;;5041684;28;20040;-69
2022/10/18 06:41:12;;;;;;;529.33;42.03;;;10.40;99.90;;;;;;5037265;28;20040;-69
2022/10/18 06:43:38;;;;;;;427.30;40.20;;;10.30;99.90;;;;;;5038089;28;20030;-70
2022/10/18 06:46:06;;;;;;;490.00;42.42;;;10.40;99.90;;;;;;5037802;28;20447;-69
2022/10/18 06:48:33;;;;;;;311.75;35.95;;;10.30;99.90;;;;;;5040831;28;20047;-69
2022/10/18 06:51:01;;;;;;;572.45;47.78;;;10.30;99.90;;;;;;5038821;28;20041;-69
2022/10/18 06:53:33;;;;;;;117.38;27.30;;;10.30;99.90;;;;;;5038201;28;20115;-69
2022/10/18 06:56:05;;;;;;;359.15;38.38;;;10.30;99.90;;;;;;5037423;28;20049;-69
2022/10/18 06:58:31;;;;;;;190.20;30.38;;;10.40;99.90;;;;;;5075344;28;20057;-69
2022/10/18 07:00:58;;;;;;;359.88;38.25;;;10.30;99.90;;;;;;5069951;28;20175;-69
2022/10/18 07:03:25;;;;;;;338.42;36.13;;;10.40;99.90;;;;;;5037481;28;20048;-69
2022/10/18 07:05:50;;;;;;;403.10;38.53;;;10.40;99.90;;;;;;5038473;28;20484;-69
2022/10/18 07:08:17;;;;;;;587.53;44.78;;;10.50;99.90;;;;;;5044136;28;20065;-69
2022/10/18 07:10:49;;;;;;;276.75;32.08;;;10.50;99.90;;;;;;5039156;28;20040;-69
2022/10/18 07:13:15;;;;;;;341.60;32.95;;;10.50;99.90;;;;;;5036672;28;20395;-69
2022/10/18 07:15:40;;;;;;;415.65;35.83;;;10.60;99.90;;;;;;5042838;28;20037;-69
2022/10/18 07:18:06;;;;;;;435.88;36.47;;;10.60;99.90;;;;;;5038833;28;20385;-69
2022/10/18 07:20:32;;;;;;;340.08;34.38;;;10.60;99.90;;;;;;5034805;28;20071;-69
2022/10/18 07:22:57;;;;;;;278.58;29.88;;;10.60;99.90;;;;;;5035000;28;20041;-69
2022/10/18 07:25:23;;;;;;;377.90;37.80;;;10.60;99.90;;;;;;5046618;28;20124;-69
2022/10/18 07:27:49;;;;;;;369.40;36.50;;;10.60;99.90;;;;;;5072694;28;20032;-69
2022/10/18 07:30:15;;;;;;;235.70;31.63;;;10.80;99.90;;;;;;5033105;28;20072;-68
2022/10/18 07:32:40;;;;;;;283.05;34.65;;;10.70;99.90;;;;;;5070450;28;20040;-69
2022/10/18 07:35:06;;;;;;;381.13;41.42;;;10.70;99.90;;;;;;5041559;28;20591;-68
2022/10/18 07:37:32;;;;;;;293.38;38.00;;;10.70;99.90;;;;;;5041183;28;20041;-69
2022/10/18 07:39:57;;;;;;;419.67;46.72;;;10.80;99.90;;;;;;5040162;28;20060;-69
2022/10/18 07:42:23;;;;;;;286.85;39.63;;;10.80;99.90;;;;;;5040034;28;20048;-69
2022/10/18 07:44:49;;;;;;;392.33;44.65;;;10.90;99.90;;;;;;5038694;28;20036;-69
2022/10/18 07:47:15;;;;;;;438.08;47.33;;;10.80;99.90;;;;;;5042536;28;20071;-68
2022/10/18 07:49:40;;;;;;;406.23;47.08;;;11.00;99.90;;;;;;5036211;28;20321;-69
2022/10/18 07:52:06;;;;;;;280.55;40.75;;;11.00;99.90;;;;;;5039934;28;20053;-69
2022/10/18 07:54:32;;;;;;;239.07;40.05;;;11.00;99.90;;;;;;5045469;28;20514;-69
2022/10/18 07:56:57;;;;;;;373.63;48.35;;;11.10;99.90;;;;;;5046290;28;20037;-69
2022/10/18 07:59:23;;;;;;;586.95;65.45;;;11.20;99.90;;;;;;5043307;28;20617;-69
2022/10/18 08:01:48;;;;;;;590.75;66.80;;;11.20;99.90;;;;;;5043083;28;20053;-69
2022/10/18 08:04:14;;;;;;;391.08;56.55;;;11.40;99.90;;;;;;5044243;28;20033;-69
2022/10/18 08:06:40;;;;;;;551.20;65.50;;;11.40;99.90;;;;;;5032564;28;20091;-69
2022/10/18 08:09:05;;;;;;;451.27;52.25;;;11.40;99.90;;;;;;5049139;28;20036;-69
2022/10/18 08:11:31;;;;;;;421.25;44.47;;;11.60;99.90;;;;;;5050546;28;20358;-68
2022/10/18 08:13:57;;;;;;;377.98;44.03;;;11.50;99.90;;;;;;5051317;28;20045;-69
2022/10/18 08:16:26;;;;;;;380.77;41.17;;;11.70;99.90;;;;;;5046592;28;20403;-69
2022/10/18 08:18:52;;;;;;;489.40;48.30;;;11.70;99.90;;;;;;5043587;28;20180;-69
2022/10/18 08:21:20;;;;;;;467.15;43.10;;;11.80;99.90;;;;;;5044825;28;20037;-69
2022/10/18 08:23:46;;;;;;;506.77;47.80;;;11.70;99.90;;;;;;5038308;28;20120;-69
2022/10/18 08:26:15;;;;;;;174.07;34.92;;;11.80;99.90;;;;;;5050468;28;20037;-69
2022/10/18 08:28:41;;;;;;;307.13;37.85;;;11.90;99.90;;;;;;5042786;28;20088;-68
2022/10/18 08:31:10;;;;;;;421.88;41.90;;;11.90;99.90;;;;;;5041842;28;20420;-68
2022/10/18 08:33:37;;;;;;;317.40;40.13;;;12.10;99.90;;;;;;5048014;28;20053;-69
2022/10/18 08:36:05;;;;;;;280.00;36.92;;;12.00;99.90;;;;;;5046497;28;20049;-68
2022/10/18 08:38:32;;;;;;;294.08;38.05;;;11.90;99.90;;;;;;5042084;28;20115;-68
2022/10/18 08:41:35;;;;;;;419.75;43.20;;;11.90;99.90;;;;;;5041132;28;20068;-68
2022/10/18 08:44:23;;;;;;;370.42;43.33;;;12.00;99.90;;;;;;5040686;28;20033;-68
2022/10/18 08:46:59;;;;;;;323.65;40.60;;;12.10;99.90;;;;;;5067256;28;20473;-68
2022/10/18 08:49:29;;;;;;;324.27;41.78;;;12.20;99.90;;;;;;5081375;28;20041;-68
2022/10/18 08:51:56;;;;;;;160.02;35.15;;;12.20;99.90;;;;;;5035416;28;20116;-68
2022/10/18 08:54:50;;;;;;;218.57;39.25;;;12.30;99.90;;;;;;5038885;28;20095;-67
2022/10/18 08:57:17;;;;;;;138.10;35.55;;;12.40;99.90;;;;;;5042537;28;20096;-67
2022/10/18 08:59:43;;;;;;;118.28;33.83;;;12.30;99.90;;;;;;5042623;28;20044;-68
2022/10/18 09:02:23;;;;;;;94.00;32.28;;;12.20;99.90;;;;;;5049313;28;20045;-68
2022/10/18 09:08:56;;;;;;;78.07;29.45;;;12.30;99.90;;;;;;5053182;28;20438;-67
2022/10/18 09:11:43;;;;;;;80.18;29.58;;;12.50;99.90;;;;;;5037303;28;20045;-68
2022/10/18 09:14:31;;;;;;;84.47;30.80;;;12.50;99.90;;;;;;5033520;28;20833;-68
2022/10/18 09:17:37;;;;;;;94.82;31.98;;;12.40;99.90;;;;;;5083161;28;20036;-67
2022/10/18 09:20:24;;;;;;;86.60;30.67;;;12.60;99.90;;;;;;5040091;28;20483;-68
2022/10/18 09:23:14;;;;;;;85.13;30.83;;;12.60;99.90;;;;;;5051524;28;20501;-68
2022/10/18 09:25:50;;;;;;;106.22;34.00;;;12.70;99.90;;;;;;5046098;28;20045;-67
2022/10/18 09:28:36;;;;;;;65.38;25.35;;;12.90;99.90;;;;;;5048735;28;20051;-68
2022/10/18 09:31:14;;;;;;;62.60;24.40;;;12.90;99.90;;;;;;5032252;28;20049;-68
2022/10/18 09:34:01;;;;;;;64.47;24.67;;;13.00;99.90;;;;;;5049489;28;20048;-67
2022/10/18 09:36:34;;;;;;;58.30;21.80;;;13.00;99.90;;;;;;5045516;28;20036;-68
2022/10/18 09:39:12;;;;;;;64.63;22.33;;;13.10;99.90;;;;;;5072550;28;20302;-69
2022/10/18 09:42:02;;;;;;;73.93;22.25;;;13.10;99.90;;;;;;5037904;28;20114;-69
2022/10/18 09:44:40;;;;;;;55.03;20.45;;;13.30;99.90;;;;;;5051513;28;20041;-68
2022/10/18 09:47:21;;;;;;;58.00;20.10;;;13.30;99.90;;;;;;5052003;28;20041;-68
2022/10/18 09:49:53;;;;;;;62.67;21.73;;;13.40;99.90;;;;;;5051817;28;20044;-69
2022/10/18 09:52:34;;;;;;;60.13;20.13;;;13.50;99.90;;;;;;5038035;28;20037;-68
2022/10/18 09:55:07;;;;;;;59.23;15.97;;;13.70;99.90;;;;;;5033704;28;20385;-74
2022/10/18 09:57:41;;;;;;;43.53;13.38;;;13.80;99.90;;;;;;5050168;28;20071;-71
2022/10/18 10:00:19;;;;;;;45.05;12.90;;;13.80;99.90;;;;;;5036430;28;20040;-74
2022/10/18 10:02:45;;;;;;;35.88;10.80;;;13.80;99.90;;;;;;5071193;28;20365;-73
2022/10/18 10:05:14;;;;;;;40.40;10.98;;;14.00;99.90;;;;;;5045813;28;20039;-74
2022/10/18 10:07:48;;;;;;;41.60;9.85;;;14.10;99.90;;;;;;5048155;28;20476;-72
2022/10/18 10:10:23;;;;;;;32.78;6.85;;;14.10;99.90;;;;;;5042169;28;20115;-70
2022/10/18 10:13:25;;;;;;;31.10;6.03;;;14.10;99.90;;;;;;5048749;28;20090;-72
2022/10/18 10:15:57;;;;;;;30.17;4.13;;;14.30;99.90;;;;;;5016795;28;20072;-70
2022/10/18 10:18:32;;;;;;;26.90;3.92;;;14.20;99.90;;;;;;5070864;28;20036;-69
2022/10/18 10:21:13;;;;;;;29.48;3.90;;;14.30;99.90;;;;;;5044523;28;20041;-73
2022/10/18 10:23:55;;;;;;;24.02;3.60;;;14.50;99.90;;;;;;5036641;28;20475;-72
2022/10/18 10:26:32;;;;;;;28.67;3.83;;;14.50;99.90;;;;;;5042888;28;21483;-73
2022/10/18 10:28:58;;;;;;;27.35;4.03;;;14.60;99.90;;;;;;5044524;28;20449;-75
2022/10/18 10:31:23;;;;;;;25.27;3.35;;;14.60;99.90;;;;;;5044622;28;20135;-75
2022/10/18 10:34:14;;;;;;;24.67;3.97;;;14.70;99.90;;;;;;5040309;28;20052;-74
2022/10/18 10:36:51;;;;;;;31.63;4.72;;;14.80;99.90;;;;;;5045408;28;20044;-74
2022/10/18 10:39:19;;;;;;;35.60;4.65;;;14.80;99.90;;;;;;5039687;28;20033;-74
2022/10/18 10:41:50;;;;;;;20.58;4.00;;;14.90;99.90;;;;;;5038575;28;20302;-76
2022/10/18 10:44:22;;;;;;;23.02;4.60;;;14.90;99.90;;;;;;5038104;28;20471;-73
2022/10/18 10:46:49;;;;;;;29.48;4.72;;;15.00;99.90;;;;;;5044737;28;20458;-74
2022/10/18 10:49:33;;;;;;;33.53;4.70;;;15.10;99.90;;;;;;5046285;28;20037;-73
2022/10/18 10:52:02;;;;;;;20.85;2.85;;;15.20;99.90;;;;;;5033657;28;20045;-75
2022/10/18 10:54:34;;;;;;;29.13;3.25;;;15.30;99.90;;;;;;5039779;28;20091;-74
2022/10/18 10:57:18;;;;;;;30.67;3.50;;;15.20;99.90;;;;;;5038115;28;20146;-75
2022/10/18 10:59:44;;;;;;;20.60;2.88;;;15.30;99.90;;;;;;5044357;28;20048;-74
2022/10/18 11:02:36;;;;;;;25.42;3.17;;;15.30;99.90;;;;;;5037181;28;20107;-72
2022/10/18 11:05:22;;;;;;;31.27;3.45;;;15.30;99.90;;;;;;5041816;28;20068;-72
2022/10/18 11:07:50;;;;;;;34.67;4.45;;;15.40;99.90;;;;;;5041597;28;20099;-74
2022/10/18 11:10:21;;;;;;;22.52;3.42;;;15.40;99.90;;;;;;5038449;28;20047;-73
2022/10/18 11:12:53;;;;;;;30.77;3.20;;;15.40;99.90;;;;;;5038024;28;20033;-71
2022/10/18 11:15:28;;;;;;;23.77;2.80;;;15.50;99.90;;;;;;5040521;28;20033;-69
2022/10/18 11:18:13;;;;;;;32.63;4.10;;;15.60;99.90;;;;;;5042473;28;20041;-71
2022/10/18 11:21:06;;;;;;;21.83;3.70;;;15.70;99.90;;;;;;5045987;28;20307;-72
2022/10/18 11:23:35;;;;;;;30.20;3.78;;;15.80;99.90;;;;;;5033265;28;20049;-70
2022/10/18 11:26:22;;;;;;;29.00;3.00;;;15.80;99.90;;;;;;5043284;28;20126;-67
2022/10/18 11:29:09;;;;;;;18.92;2.80;;;15.80;99.90;;;;;;5042009;28;20384;-69
2022/10/18 11:31:43;;;;;;;27.00;3.08;;;15.80;99.90;;;;;;5043640;28;20040;-72
2022/10/18 11:34:24;;;;;;;19.50;2.90;;;15.70;99.90;;;;;;5046028;28;20120;-71
2022/10/18 11:37:09;;;;;;;23.52;3.42;;;15.70;99.90;;;;;;5074447;28;20045;-72
2022/10/18 11:40:08;;;;;;;27.02;3.60;;;15.70;99.90;;;;;;5043348;28;20048;-69
2022/10/18 11:42:49;;;;;;;23.20;2.50;;;15.60;99.90;;;;;;5044667;28;20037;-72
2022/10/18 11:45:34;;;;;;;32.35;4.38;;;15.60;99.90;;;;;;5039487;28;20041;-74
2022/10/18 11:48:39;;;;;;;22.60;3.92;;;15.60;99.90;;;;;;5045984;28;20048;-71
2022/10/18 11:51:29;;;;;;;26.88;3.30;;;15.60;99.90;;;;;;5033270;28;20057;-71
2022/10/18 11:54:20;;;;;;;24.00;3.05;;;15.70;99.90;;;;;;5046949;28;20073;-72
2022/10/18 11:57:07;;;;;;;20.33;3.15;;;15.80;99.90;;;;;;5045751;28;20500;-72
2022/10/18 11:59:56;;;;;;;21.55;3.35;;;15.80;99.90;;;;;;5043698;28;20495;-70
2022/10/18 12:02:53;;;;;;;31.52;3.50;;;15.90;99.90;;;;;;5038000;28;20052;-72
2022/10/18 12:05:21;;;;;;;27.10;4.28;;;16.00;99.90;;;;;;5060120;28;20045;-73
2022/10/18 12:07:57;;;;;;;25.73;3.05;;;16.00;99.90;;;;;;5042031;28;20048;-71
2022/10/18 12:10:23;;;;;;;27.20;2.83;;;16.20;99.90;;;;;;5039900;28;20041;-68
2022/10/18 12:12:52;;;;;;;20.80;2.42;;;16.20;99.90;;;;;;5070827;28;20045;-71
2022/10/18 12:15:24;;;;;;;19.85;2.58;;;16.20;99.90;;;;;;5042184;28;20037;-68
2022/10/18 12:17:58;;;;;;;23.10;3.10;;;16.00;99.90;;;;;;5047102;28;20070;-70
2022/10/18 12:20:38;;;;;;;22.15;2.55;;;15.90;99.90;;;;;;5042484;28;20481;-71
2022/10/18 12:23:18;;;;;;;18.08;2.30;;;15.60;99.90;;;;;;5044043;28;20072;-71
2022/10/18 12:25:55;;;;;;;26.13;2.85;;;15.60;99.90;;;;;;5045213;28;20128;-72
2022/10/18 12:28:56;;;;;;;29.23;3.03;;;15.60;99.90;;;;;;5048278;28;20025;-68
2022/10/18 12:31:28;;;;;;;20.50;2.85;;;15.70;99.90;;;;;;5077522;28;20041;-68
2022/10/18 12:33:58;;;;;;;14.82;2.50;;;15.90;99.90;;;;;;5050663;28;20044;-69
2022/10/18 12:36:49;;;;;;;19.48;2.60;;;15.90;99.90;;;;;;5047297;28;20044;-69
2022/10/18 12:39:23;;;;;;;15.70;2.25;;;15.90;99.90;;;;;;5043039;28;20041;-72
2022/10/18 12:41:53;;;;;;;27.20;2.88;;;15.90;99.90;;;;;;5048079;28;20112;-71
2022/10/18 12:44:29;;;;;;;22.77;3.05;;;15.90;99.90;;;;;;5048085;28;20033;-69
2022/10/18 12:46:58;;;;;;;14.43;2.88;;;15.90;99.90;;;;;;5045692;28;20044;-70
2022/10/18 12:49:30;;;;;;;13.55;2.47;;;15.90;99.90;;;;;;5049631;28;20037;-70
2022/10/18 12:51:59;;;;;;;25.58;3.15;;;15.90;99.90;;;;;;5064847;28;20403;-69
2022/10/18 12:54:37;;;;;;;20.35;3.92;;;15.80;99.90;;;;;;5051593;28;20079;-69
2022/10/18 12:57:21;;;;;;;22.20;3.10;;;15.50;99.90;;;;;;5044745;28;20060;-69